»·PEaware :: N432SP KSEE-KCRQ

N432SP :: KSEE-KCRQ

FLIGHT INFORMATION

Flight Status: Arrived
Operator: Privately registered:
United States
More flights under this callsign
Pilot: Abdulkadir S. (4989)
Aircraft: CESSNA 172 SKYHAWK
(C172)
More flights by this aircraft type
Origin: KSEE Gillespie
United States
Destination: KCRQ McClellan-Palomar
United States
More flights between these airports :: More routes between these airports
Route: OCN
File this flight plan on PilotEdge
Remarks:
Altitude:
(Current/Filed)
6,000ft
Speed:
(Current/Filed)
110kts
Departed: 09-Nov-18 11:21 AM
Arrived: 09-Nov-18 12:00 PM
Distance/Time
Traveled:
24nm/0:39
Distance/Time
To Go:
Arrived

Flight Plot

Page will automatically refresh every two minutes.


Map Options




Map Legend


Flown Route
Filed Route
Departure Airport
Arrival Airport
Navaid (VOR, NDB)
Fix

Horizontal Profiles

Position Reports

Time Latitude Longitude Heading Altitude Ground
Speed
09-Nov-18 10:58 32.825789 -116.974514 0 367ft 0kts
09-Nov-18 10:59 32.825789 -116.974514 189 367ft 0kts
09-Nov-18 11:00 32.825789 -116.974514 189 367ft 0kts
09-Nov-18 11:01 32.825815 -116.974545 19 367ft 0kts
09-Nov-18 11:02 32.825816 -116.974545 13 367ft 0kts
09-Nov-18 11:03 32.825816 -116.974545 13 367ft 0kts
09-Nov-18 11:04 32.825816 -116.974545 13 367ft 0kts
09-Nov-18 11:05 32.825816 -116.974545 13 367ft 0kts
09-Nov-18 11:06 32.825816 -116.974545 13 367ft 0kts
09-Nov-18 11:07 32.825816 -116.974545 13 367ft 0kts
09-Nov-18 11:08 32.825816 -116.974545 13 367ft 0kts
09-Nov-18 11:09 32.825816 -116.974545 13 367ft 0kts
09-Nov-18 11:10 32.825816 -116.974545 13 367ft 0kts
09-Nov-18 11:11 32.825816 -116.974545 13 367ft 0kts
09-Nov-18 11:12 32.825816 -116.974545 13 367ft 0kts
09-Nov-18 11:13 32.825816 -116.974545 13 367ft 0kts
09-Nov-18 11:14 32.825816 -116.974545 13 367ft 0kts
09-Nov-18 11:15 32.825817 -116.974545 12 367ft 0kts
09-Nov-18 11:16 32.825817 -116.974545 12 367ft 0kts
09-Nov-18 11:17 32.825817 -116.974545 12 367ft 0kts
09-Nov-18 11:18 32.825817 -116.974545 12 367ft 0kts
09-Nov-18 11:19 32.825817 -116.974545 12 367ft 0kts
09-Nov-18 11:20 32.825818 -116.974545 8 367ft 0kts
09-Nov-18 11:21 32.824689 -116.972932 179 372ft 11kts
09-Nov-18 11:22 32.820181 -116.972897 179 375ft 20kts
09-Nov-18 11:23 32.819009 -116.972904 165 375ft 0kts
09-Nov-18 11:24 32.823823 -116.972490 357 395ft 77kts
09-Nov-18 11:25 32.844450 -116.975222 347 1376ft 74kts
09-Nov-18 11:26 32.863882 -116.982900 345 2291ft 75kts
09-Nov-18 11:27 32.884061 -116.986795 351 3179ft 73kts
09-Nov-18 11:28 32.904102 -116.991445 351 3975ft 75kts
09-Nov-18 11:29 32.929101 -117.002773 312 4082ft 103kts
09-Nov-18 11:30 32.947908 -117.031145 315 4078ft 114kts
09-Nov-18 11:31 32.968833 -117.060243 314 4022ft 117kts
09-Nov-18 11:32 32.991107 -117.089753 311 3936ft 123kts
09-Nov-18 11:33 33.010571 -117.122417 309 4027ft 119kts
09-Nov-18 11:34 33.032488 -117.152482 319 3947ft 123kts
09-Nov-18 11:35 33.057138 -117.177455 319 4072ft 104kts
09-Nov-18 11:36 33.078145 -117.201645 315 4058ft 106kts
09-Nov-18 11:37 33.098703 -117.227938 317 3980ft 109kts
09-Nov-18 11:38 33.118820 -117.255189 313 4026ft 119kts
09-Nov-18 11:39 33.141032 -117.286777 313 4006ft 129kts
09-Nov-18 11:40 33.164264 -117.319078 313 4000ft 129kts
09-Nov-18 11:41 33.186925 -117.349177 317 3945ft 112kts
09-Nov-18 11:42 33.207938 -117.375125 323 4022ft 107kts
09-Nov-18 11:43 33.229544 -117.399017 321 4135ft 106kts
09-Nov-18 11:44 33.250983 -117.399955 87 3981ft 102kts
09-Nov-18 11:45 33.247209 -117.365968 93 3971ft 106kts
09-Nov-18 11:46 33.243017 -117.331127 93 4003ft 106kts
09-Nov-18 11:47 33.234224 -117.296943 98 4034ft 107kts
09-Nov-18 11:48 33.228021 -117.261897 88 4005ft 109kts
09-Nov-18 11:49 33.221840 -117.226125 106 3966ft 113kts
09-Nov-18 11:50 33.211910 -117.190292 103 3943ft 113kts
09-Nov-18 11:51 33.205841 -117.154546 91 4007ft 108kts
09-Nov-18 11:52 33.203079 -117.117846 91 4013ft 111kts
09-Nov-18 11:53 33.200338 -117.080961 91 4018ft 112kts
09-Nov-18 11:54 33.197564 -117.043914 90 4022ft 112kts
09-Nov-18 11:55 33.180391 -117.018708 198 3886ft 123kts
09-Nov-18 11:56 33.161023 -117.047387 261 3491ft 99kts
09-Nov-18 11:57 33.155510 -117.078265 273 3214ft 92kts
09-Nov-18 11:58 33.154309 -117.116684 258 3168ft 130kts
09-Nov-18 11:59 33.147792 -117.157012 265 2522ft 114kts
09-Nov-18 12:00 33.141948 -117.192929 263 1811ft 112kts
09-Nov-18 12:01 33.136431 -117.227275 262 1160ft 99kts
09-Nov-18 12:02 33.131755 -117.258140 261 616ft 90kts
09-Nov-18 12:03 33.128280 -117.279746 263 308ft 24kts

Navigation Log

Ident Type
1. KSEE Airport
2. OCN Navaid
3. KCRQ Airport